Time;durP1;ratioP1;P1;durP2;ratioP2;P2;SDS_P1;SDS_P2;PMS_P1;PMS_P2;Temp;Humidity;BMP_temperature;BMP_pressure;BME280_temperature;BME280_humidity;BME280_pressure;Samples;Min_cycle;Max_cycle;Signal;HPM_P1;HPM_P2
2023/06/21 11:54:38;;;;;;;9.23;6.97;;;24.80;72.80;;;;;;5717621;23;20843;-83
2023/06/21 11:57:06;;;;;;;7.45;6.47;;;24.80;70.40;;;;;;4799968;29;20058;-83
2023/06/21 11:59:33;;;;;;;9.80;8.07;;;25.00;69.50;;;;;;4806732;29;20061;-82
2023/06/21 12:02:13;;;;;;;14.63;8.43;;;25.10;69.40;;;;;;4791470;29;20046;-82
2023/06/21 12:04:42;;;;;;;9.77;8.35;;;25.00;66.50;;;;;;4791514;29;20047;-83
2023/06/21 12:07:09;;;;;;;15.75;10.10;;;25.20;68.60;;;;;;4791627;29;20086;-83
2023/06/21 12:09:38;;;;;;;9.40;8.10;;;25.10;68.30;;;;;;4777331;29;20062;-83
2023/06/21 12:12:09;;;;;;;8.65;7.75;;;25.00;68.40;;;;;;4791773;29;20055;-81
2023/06/21 12:14:36;;;;;;;7.70;6.90;;;22.70;67.10;;;;;;4791607;29;20046;-81
2023/06/21 12:17:03;;;;;;;6.63;5.93;;;25.00;69.30;;;;;;4823325;29;20101;-82
2023/06/21 12:19:31;;;;;;;9.05;6.55;;;25.00;69.60;;;;;;4807215;29;20053;-82
2023/06/21 12:22:04;;;;;;;7.53;6.82;;;25.20;69.00;;;;;;4806917;29;20050;-82
2023/06/21 12:24:32;;;;;;;14.00;6.35;;;25.20;68.20;;;;;;4777428;29;20046;-82
2023/06/21 12:27:00;;;;;;;9.75;6.75;;;25.40;67.20;;;;;;4791909;29;20042;-82
2023/06/21 12:29:27;;;;;;;6.80;5.75;;;25.30;65.60;;;;;;4791724;29;20046;-83
2023/06/21 12:31:56;;;;;;;9.60;5.43;;;25.40;65.10;;;;;;4792091;29;20110;-81
2023/06/21 12:34:23;;;;;;;9.45;5.88;;;25.30;64.40;;;;;;4791803;29;20061;-81
2023/06/21 12:36:51;;;;;;;7.55;6.50;;;25.30;65.10;;;;;;4806392;29;20046;-82
2023/06/21 12:39:17;;;;;;;11.35;7.00;;;25.30;65.70;;;;;;4794861;29;20111;-83
2023/06/21 12:41:43;;;;;;;7.50;6.63;;;25.00;66.00;;;;;;4794967;29;20055;-83
2023/06/21 12:44:21;;;;;;;9.52;8.38;;;25.30;67.10;;;;;;4810014;29;20495;-81
2023/06/21 12:46:47;;;;;;;8.32;6.47;;;25.40;65.30;;;;;;4809638;29;20054;-82
2023/06/21 12:49:14;;;;;;;6.32;3.97;;;25.40;65.10;;;;;;4809862;29;20046;-82
2023/06/21 12:51:41;;;;;;;7.97;4.70;;;25.40;64.40;;;;;;4826116;29;20057;-81
2023/06/21 12:54:08;;;;;;;9.60;5.60;;;25.60;63.30;;;;;;4779910;29;20129;-83
2023/06/21 12:56:37;;;;;;;7.88;5.63;;;25.50;63.10;;;;;;4808822;29;20098;-83
2023/06/21 12:59:04;;;;;;;9.77;5.82;;;25.50;63.00;;;;;;4794535;29;20051;-82
2023/06/21 13:01:31;;;;;;;6.32;5.07;;;25.60;62.40;;;;;;4809343;29;20038;-81
2023/06/21 13:03:58;;;;;;;6.15;4.30;;;25.50;61.90;;;;;;4809686;29;20876;-85
2023/06/21 13:06:27;;;;;;;4.22;2.95;;;25.70;60.60;;;;;;4794284;29;20187;-82
2023/06/21 13:08:54;;;;;;;3.45;3.15;;;26.10;59.60;;;;;;4794352;29;20091;-84
2023/06/21 13:11:21;;;;;;;5.28;3.55;;;25.70;57.30;;;;;;4794231;29;20053;-80
2023/06/21 13:13:47;;;;;;;3.50;2.83;;;25.90;57.50;;;;;;4794077;29;20054;-81
2023/06/21 13:16:14;;;;;;;6.45;3.83;;;25.90;56.30;;;;;;4794207;29;20076;-81
2023/06/21 13:18:44;;;;;;;5.53;3.38;;;26.10;56.70;;;;;;4779754;29;20042;-81
2023/06/21 13:21:11;;;;;;;5.32;4.03;;;25.90;56.70;;;;;;4808803;29;20411;-83
2023/06/21 13:23:36;;;;;;;4.45;3.53;;;25.90;57.00;;;;;;4793541;29;20049;-82
2023/06/21 13:26:02;;;;;;;5.25;4.25;;;25.90;57.00;;;;;;4793225;29;20050;-82
2023/06/21 13:28:28;;;;;;;7.30;5.25;;;25.90;57.30;;;;;;4808489;29;20109;-83
2023/06/21 13:30:55;;;;;;;8.85;5.75;;;25.90;58.30;;;;;;4808751;29;20052;-82
2023/06/21 13:33:21;;;;;;;12.40;6.28;;;25.80;59.20;;;;;;4793557;29;20069;-82
2023/06/21 13:35:47;;;;;;;12.77;7.55;;;25.90;59.60;;;;;;4808511;29;20476;-82
2023/06/21 13:38:16;;;;;;;10.25;8.10;;;25.80;60.10;;;;;;4808104;29;20076;-82
2023/06/21 13:40:42;;;;;;;13.18;7.95;;;25.60;59.70;;;;;;4793146;29;20062;-82
2023/06/21 13:43:08;;;;;;;12.27;7.53;;;25.60;61.80;;;;;;4808438;29;20053;-82
2023/06/21 13:45:34;;;;;;;11.63;7.38;;;25.40;62.00;;;;;;4778212;29;20145;-81
2023/06/21 13:48:00;;;;;;;6.43;5.82;;;25.60;62.20;;;;;;4807872;29;20046;-83
2023/06/21 13:50:26;;;;;;;8.43;6.60;;;25.60;62.00;;;;;;4807891;29;20077;-83
2023/06/21 13:52:51;;;;;;;10.18;7.55;;;25.90;62.30;;;;;;4793318;29;20050;-83
2023/06/21 13:55:20;;;;;;;11.90;8.07;;;26.00;61.80;;;;;;4807599;29;20574;-82
2023/06/21 13:57:48;;;;;;;10.55;8.05;;;26.10;61.80;;;;;;4778566;29;20103;-83
2023/06/21 14:00:17;;;;;;;15.32;9.20;;;26.10;61.80;;;;;;4793176;29;20563;-84
2023/06/21 14:02:45;;;;;;;21.08;10.93;;;25.90;61.70;;;;;;4792787;29;20046;-83
2023/06/21 14:05:12;;;;;;;14.50;10.13;;;25.80;63.60;;;;;;4793016;29;20542;-82
2023/06/21 14:07:40;;;;;;;11.57;9.57;;;25.70;64.00;;;;;;4792786;29;20057;-86
2023/06/21 14:10:06;;;;;;;12.88;9.40;;;25.50;64.10;;;;;;4778056;29;20087;-84
2023/06/21 14:12:33;;;;;;;12.10;9.98;;;25.60;63.80;;;;;;4793416;29;20051;-82
2023/06/21 14:14:59;;;;;;;12.73;8.80;;;25.50;64.50;;;;;;4792729;29;20179;-82
2023/06/21 14:17:24;;;;;;;12.68;8.18;;;25.40;64.40;;;;;;4792769;29;20054;-85
2023/06/21 14:19:51;;;;;;;9.23;6.93;;;25.30;64.00;;;;;;4807665;29;20065;-83
2023/06/21 14:22:17;;;;;;;11.00;7.57;;;25.20;63.40;;;;;;4807520;29;20050;-84
2023/06/21 14:24:43;;;;;;;9.55;6.47;;;25.20;63.70;;;;;;4807804;29;20046;-84
2023/06/21 14:27:09;;;;;;;11.85;8.60;;;25.30;63.70;;;;;;4794201;29;20081;-83
2023/06/21 14:29:35;;;;;;;13.48;8.20;;;25.40;64.30;;;;;;4809936;29;20495;-85
2023/06/21 14:32:01;;;;;;;20.73;8.43;;;25.40;64.30;;;;;;4810430;29;20046;-86
2023/06/21 14:34:27;;;;;;;11.05;7.72;;;25.30;64.20;;;;;;4823809;29;20050;-83
2023/06/21 14:36:53;;;;;;;9.35;8.00;;;25.60;64.50;;;;;;4824194;29;20042;-87
2023/06/21 14:39:18;;;;;;;8.15;6.95;;;25.80;65.70;;;;;;4808126;29;20519;-88
2023/06/21 14:41:44;;;;;;;9.43;6.20;;;25.70;64.00;;;;;;4825469;29;20102;-89
2023/06/21 14:44:10;;;;;;;9.10;5.65;;;25.80;63.70;;;;;;4811891;29;20138;-88
2023/06/21 14:46:36;;;;;;;8.48;6.32;;;25.80;64.30;;;;;;4793605;29;20495;-85
2023/06/21 14:49:02;;;;;;;8.32;6.88;;;25.80;61.00;;;;;;4777973;29;20119;-85
2023/06/21 14:51:27;;;;;;;12.00;6.82;;;26.10;61.20;;;;;;4792574;29;20496;-86
2023/06/21 14:53:53;;;;;;;6.97;6.28;;;26.00;61.80;;;;;;4792920;29;20050;-88
2023/06/21 14:56:19;;;;;;;10.68;6.25;;;25.80;62.00;;;;;;4792912;29;20058;-89
2023/06/21 14:58:45;;;;;;;8.07;6.20;;;25.90;64.60;;;;;;4792794;29;20555;-89
2023/06/21 15:01:11;;;;;;;7.38;5.28;;;25.90;61.30;;;;;;4807058;29;20050;-90
2023/06/21 15:03:37;;;;;;;11.30;5.68;;;26.00;61.90;;;;;;4824228;29;20496;-86
2023/06/21 15:06:02;;;;;;;7.82;5.32;;;25.90;61.80;;;;;;4807494;29;20042;-85
2023/06/21 15:08:28;;;;;;;7.80;5.18;;;25.80;60.90;;;;;;4777129;29;20424;-87
2023/06/21 15:10:54;;;;;;;7.72;5.43;;;26.20;61.10;;;;;;4807633;29;20054;-88
2023/06/21 15:13:20;;;;;;;6.30;4.40;;;26.10;60.70;;;;;;4763071;29;20141;-85
2023/06/21 15:15:46;;;;;;;7.10;4.63;;;26.20;60.00;;;;;;4821693;29;20189;-86
2023/06/21 15:18:14;;;;;;;4.97;3.92;;;25.90;59.10;;;;;;4780972;29;20460;-86
2023/06/21 15:20:40;;;;;;;7.05;3.70;;;25.90;57.70;;;;;;4816026;29;20125;-86
2023/06/21 15:23:06;;;;;;;3.47;2.70;;;26.40;58.40;;;;;;4798651;29;20544;-86
2023/06/21 15:25:32;;;;;;;5.47;3.80;;;25.90;57.80;;;;;;4821674;29;20090;-86
2023/06/21 15:28:01;;;;;;;6.40;4.00;;;26.10;56.60;;;;;;4794082;29;20093;-82
2023/06/21 15:30:27;;;;;;;5.25;3.85;;;26.20;57.80;;;;;;4823177;29;20110;-83
2023/06/21 15:32:53;;;;;;;7.00;3.55;;;26.40;57.10;;;;;;4817333;29;20050;-83
2023/06/21 15:35:19;;;;;;;8.68;3.10;;;26.00;56.30;;;;;;4796748;29;20050;-83
2023/06/21 15:37:44;;;;;;;4.82;3.80;;;26.30;55.30;;;;;;4818828;29;20083;-82
2023/06/21 15:40:11;;;;;;;5.18;2.70;;;26.10;55.40;;;;;;4800140;29;20042;-82
2023/06/21 15:42:39;;;;;;;3.28;2.60;;;26.00;54.10;;;;;;4806644;29;20546;-81
2023/06/21 15:45:05;;;;;;;4.32;3.17;;;26.00;55.30;;;;;;4822667;29;20042;-83
2023/06/21 15:47:31;;;;;;;4.38;2.22;;;26.00;54.00;;;;;;4806256;29;20049;-83
2023/06/21 15:49:57;;;;;;;4.03;2.08;;;26.20;54.60;;;;;;4814734;29;20500;-82
2023/06/21 15:52:23;;;;;;;4.45;2.30;;;26.20;53.80;;;;;;4818991;29;20058;-83
2023/06/21 15:54:49;;;;;;;3.55;2.17;;;26.10;53.50;;;;;;4790880;29;20099;-83
2023/06/21 15:57:15;;;;;;;1.95;1.63;;;25.80;54.10;;;;;;4820769;29;20094;-82
2023/06/21 15:59:41;;;;;;;5.63;1.67;;;26.20;52.30;;;;;;4828277;29;20068;-83
2023/06/21 16:02:10;;;;;;;5.28;2.00;;;26.10;52.50;;;;;;4806175;29;20915;-82
2023/06/21 16:04:35;;;;;;;2.50;1.35;;;26.00;49.40;;;;;;4822659;29;20050;-84
2023/06/21 16:07:02;;;;;;;3.28;2.58;;;25.90;50.80;;;;;;4806174;29;20317;-83
2023/06/21 16:09:28;;;;;;;5.93;3.80;;;25.90;50.60;;;;;;4801077;29;20419;-82
2023/06/21 16:11:54;;;;;;;6.15;4.30;;;26.20;52.70;;;;;;4805539;29;20050;-82
2023/06/21 16:14:20;;;;;;;5.78;4.05;;;26.10;53.80;;;;;;4786242;29;20076;-83
2023/06/21 16:16:45;;;;;;;4.53;3.75;;;25.90;55.00;;;;;;4782301;29;20490;-84
2023/06/21 16:19:11;;;;;;;5.70;3.72;;;26.30;55.30;;;;;;4808461;29;20043;-83
2023/06/21 16:21:37;;;;;;;4.95;3.30;;;25.90;55.00;;;;;;4825249;29;20465;-82
2023/06/21 16:24:03;;;;;;;6.10;3.47;;;26.00;54.40;;;;;;4809739;29;20046;-83
2023/06/21 16:26:29;;;;;;;5.70;3.65;;;25.60;53.10;;;;;;4810185;29;20051;-82
2023/06/21 16:28:55;;;;;;;5.82;4.85;;;25.60;53.50;;;;;;4795235;29;20054;-81
2023/06/21 16:31:22;;;;;;;5.95;3.92;;;25.90;54.10;;;;;;4810006;29;20472;-82
2023/06/21 16:33:48;;;;;;;8.00;4.13;;;25.50;54.00;;;;;;4780148;29;20046;-83
2023/06/21 16:36:13;;;;;;;6.15;3.80;;;25.80;54.00;;;;;;4779988;29;20190;-82
2023/06/21 16:38:39;;;;;;;8.63;4.13;;;25.70;54.20;;;;;;4794724;29;20046;-83
2023/06/21 16:41:05;;;;;;;4.82;3.95;;;25.70;53.90;;;;;;4794675;29;20093;-82
2023/06/21 16:43:30;;;;;;;6.43;4.00;;;25.80;54.10;;;;;;4794631;29;20042;-82
2023/06/21 16:45:56;;;;;;;4.95;3.92;;;25.60;54.30;;;;;;4780103;29;20054;-82
2023/06/21 16:48:22;;;;;;;4.32;3.90;;;25.70;54.70;;;;;;4779645;29;20046;-83
2023/06/21 16:50:48;;;;;;;5.68;3.90;;;25.60;54.80;;;;;;4765705;29;20051;-83
2023/06/21 16:53:14;;;;;;;5.05;4.53;;;25.40;54.90;;;;;;4796216;29;20419;-83
2023/06/21 16:55:40;;;;;;;12.07;5.80;;;25.60;55.00;;;;;;4779855;29;20535;-83
2023/06/21 16:58:06;;;;;;;6.68;4.35;;;25.50;54.80;;;;;;4794834;29;20065;-83
2023/06/21 17:00:32;;;;;;;6.20;4.60;;;25.40;55.00;;;;;;4794975;29;20499;-83
2023/06/21 17:02:57;;;;;;;8.90;4.03;;;25.50;55.20;;;;;;4809646;29;20050;-84
2023/06/21 17:05:24;;;;;;;6.03;3.65;;;25.50;55.80;;;;;;4795288;29;20038;-85
2023/06/21 17:07:51;;;;;;;7.13;3.92;;;25.60;55.80;;;;;;4809276;29;20057;-84
2023/06/21 17:10:18;;;;;;;7.15;4.45;;;25.50;55.30;;;;;;4809243;29;20046;-85
2023/06/21 17:12:45;;;;;;;5.78;4.32;;;25.50;55.40;;;;;;4794123;29;20058;-84
2023/06/21 17:15:12;;;;;;;6.97;4.72;;;25.40;55.60;;;;;;4794189;29;20042;-84
2023/06/21 17:17:39;;;;;;;6.93;4.75;;;25.50;56.00;;;;;;4794294;29;20050;-85
2023/06/21 17:20:05;;;;;;;5.63;4.05;;;25.30;56.80;;;;;;4794181;29;20572;-84
2023/06/21 17:22:31;;;;;;;6.50;3.67;;;25.30;55.80;;;;;;4779325;29;20050;-83
2023/06/21 17:24:57;;;;;;;7.43;3.92;;;25.30;56.50;;;;;;4793308;29;20102;-83
2023/06/21 17:27:23;;;;;;;7.22;3.95;;;25.40;56.40;;;;;;4793926;29;20414;-85
2023/06/21 17:29:49;;;;;;;4.68;3.67;;;25.50;56.60;;;;;;4809530;29;20641;-85
2023/06/21 17:32:15;;;;;;;5.03;3.38;;;25.40;56.70;;;;;;4794535;29;20047;-84
2023/06/21 17:34:42;;;;;;;3.55;3.00;;;25.30;55.90;;;;;;4793986;29;20042;-83
2023/06/21 17:37:08;;;;;;;5.10;3.35;;;25.20;57.00;;;;;;4794199;29;20057;-84
2023/06/21 17:39:34;;;;;;;4.82;2.75;;;25.30;55.20;;;;;;4778837;29;20551;-84
2023/06/21 17:42:00;;;;;;;5.05;3.33;;;25.10;55.10;;;;;;4793746;29;20058;-84
2023/06/21 17:44:26;;;;;;;4.30;2.67;;;25.50;55.50;;;;;;4808913;29;20074;-84
2023/06/21 17:46:51;;;;;;;4.38;3.30;;;25.30;55.70;;;;;;4793840;29;20057;-83
2023/06/21 17:49:17;;;;;;;5.05;3.55;;;25.40;56.30;;;;;;4793989;29;20085;-84
2023/06/21 17:51:45;;;;;;;7.95;4.22;;;25.30;56.70;;;;;;4793974;29;20523;-84
2023/06/21 17:54:10;;;;;;;5.88;4.50;;;25.00;57.10;;;;;;4794017;29;20057;-83
2023/06/21 17:56:36;;;;;;;5.80;5.20;;;24.90;57.80;;;;;;4824908;29;20503;-84
2023/06/21 17:59:03;;;;;;;6.32;5.10;;;24.90;59.00;;;;;;4778855;29;20068;-83
2023/06/21 18:01:30;;;;;;;9.38;5.07;;;25.00;59.40;;;;;;4825401;29;20049;-83
2023/06/21 18:03:56;;;;;;;7.03;4.70;;;24.90;60.50;;;;;;4808659;29;20050;-82
2023/06/21 18:06:25;;;;;;;5.15;4.13;;;25.00;60.50;;;;;;4808943;29;20050;-82
2023/06/21 18:08:52;;;;;;;9.70;4.88;;;24.90;61.00;;;;;;4793724;29;20058;-83
2023/06/21 18:11:18;;;;;;;5.35;4.30;;;24.50;60.70;;;;;;4809107;29;20091;-82
2023/06/21 18:13:44;;;;;;;7.65;6.60;;;24.70;60.90;;;;;;4795315;29;20251;-83
2023/06/21 18:16:10;;;;;;;8.40;7.53;;;24.80;61.80;;;;;;4793524;29;20130;-83
2023/06/21 18:18:36;;;;;;;9.05;7.32;;;25.00;63.20;;;;;;4778485;29;20053;-83
2023/06/21 18:21:02;;;;;;;11.52;8.80;;;24.70;64.00;;;;;;4793475;29;20196;-83
2023/06/21 18:23:28;;;;;;;11.40;8.60;;;24.80;64.70;;;;;;4808775;29;20061;-83
2023/06/21 18:25:55;;;;;;;11.55;9.32;;;24.60;65.10;;;;;;4808432;29;20146;-83
2023/06/21 18:28:21;;;;;;;10.95;8.55;;;24.60;66.40;;;;;;4808380;29;20062;-83
2023/06/21 18:30:47;;;;;;;10.02;8.35;;;24.40;66.50;;;;;;4808347;29;20058;-83
2023/06/21 18:33:13;;;;;;;11.00;8.40;;;24.50;66.40;;;;;;4764026;29;20054;-83
2023/06/21 18:35:39;;;;;;;10.68;8.38;;;24.20;67.20;;;;;;4793182;29;20049;-83
2023/06/21 18:38:06;;;;;;;11.55;8.32;;;24.30;68.70;;;;;;4807835;29;20477;-83
2023/06/21 18:40:32;;;;;;;11.95;8.75;;;24.20;70.30;;;;;;4824544;29;20110;-83
2023/06/21 18:42:57;;;;;;;10.77;7.93;;;24.30;68.10;;;;;;4808191;29;20058;-83
2023/06/21 18:45:23;;;;;;;10.98;7.32;;;24.60;69.00;;;;;;4824176;29;20051;-83
2023/06/21 18:47:50;;;;;;;13.77;8.38;;;24.00;68.30;;;;;;4778087;29;20057;-82
2023/06/21 18:50:17;;;;;;;7.95;6.95;;;23.30;68.60;;;;;;4824246;29;20089;-82
2023/06/21 18:52:43;;;;;;;8.68;7.80;;;24.00;69.30;;;;;;4807601;29;20530;-83
2023/06/21 18:55:11;;;;;;;9.57;7.82;;;23.70;69.60;;;;;;4792755;29;20098;-83
2023/06/21 18:57:38;;;;;;;14.10;9.45;;;23.80;70.40;;;;;;4824082;29;20074;-84
2023/06/21 19:00:05;;;;;;;12.43;10.32;;;23.80;71.20;;;;;;4778143;29;20050;-83
2023/06/21 19:02:31;;;;;;;21.10;11.90;;;23.50;71.10;;;;;;4808098;29;20485;-85
2023/06/21 19:04:57;;;;;;;12.57;9.93;;;23.50;72.80;;;;;;4807945;29;20050;-84
2023/06/21 19:07:23;;;;;;;13.50;11.25;;;23.30;78.70;;;;;;4823942;29;20141;-83
2023/06/21 19:09:49;;;;;;;14.68;11.20;;;23.20;80.40;;;;;;4792804;29;20082;-83
2023/06/21 19:12:15;;;;;;;15.05;10.98;;;23.60;76.40;;;;;;4807647;29;20093;-83
2023/06/21 19:14:41;;;;;;;14.15;11.75;;;23.20;79.40;;;;;;4823923;29;20047;-83
2023/06/21 19:17:08;;;;;;;14.40;10.32;;;23.10;77.60;;;;;;4824396;29;20050;-84
2023/06/21 19:19:35;;;;;;;17.75;12.00;;;22.80;80.70;;;;;;4807837;29;20550;-84
2023/06/21 19:22:01;;;;;;;13.85;11.57;;;;;;;;;;4807915;29;20094;-85
2023/06/21 19:24:27;;;;;;;15.55;12.20;;;;;;;;;;4824482;29;20054;-83
2023/06/21 19:26:53;;;;;;;14.57;11.45;;;22.70;85.50;;;;;;4824596;29;20047;-82
2023/06/21 19:29:19;;;;;;;16.90;12.07;;;22.70;85.20;;;;;;4808416;29;20407;-86
2023/06/21 19:31:45;;;;;;;16.40;12.85;;;22.50;86.30;;;;;;4824545;29;20074;-86
2023/06/21 19:34:12;;;;;;;14.88;12.02;;;22.70;85.70;;;;;;4809555;29;20054;-85
2023/06/21 19:36:38;;;;;;;15.60;12.05;;;22.60;82.40;;;;;;4793288;29;20054;-89
2023/06/21 19:39:04;;;;;;;14.73;11.55;;;22.30;88.70;;;;;;4807842;29;20057;-83
2023/06/21 19:41:30;;;;;;;17.17;12.50;;;22.00;86.70;;;;;;4778058;29;20099;-83
2023/06/21 19:43:56;;;;;;;15.65;11.27;;;21.90;88.40;;;;;;4807416;29;20054;-84
2023/06/21 19:46:23;;;;;;;15.98;10.50;;;;;;;;;;4792227;29;20057;-82
2023/06/21 19:48:49;;;;;;;12.05;10.77;;;22.00;88.80;;;;;;4807467;29;20046;-85
2023/06/21 19:51:15;;;;;;;15.25;10.50;;;;;;;;;;4807260;29;20111;-82
2023/06/21 19:53:41;;;;;;;13.52;10.70;;;21.90;90.00;;;;;;4807378;29;20055;-85
2023/06/21 19:56:07;;;;;;;18.02;10.25;;;;;;;;;;4806798;29;20065;-86
2023/06/21 19:58:33;;;;;;;13.40;11.32;;;;;;;;;;4792818;29;20054;-80
2023/06/21 20:00:59;;;;;;;20.33;10.80;;;;;;;;;;4807216;29;20496;-84
2023/06/21 20:03:25;;;;;;;14.32;10.30;;;;;;;;;;4807005;29;20523;-87
2023/06/21 20:05:53;;;;;;;15.55;10.75;;;;;;;;;;4807388;29;20050;-85
2023/06/21 20:08:19;;;;;;;12.50;9.88;;;;;;;;;;4777017;29;20046;-84
2023/06/21 20:10:45;;;;;;;11.82;9.63;;;21.20;90.20;;;;;;4777651;29;20104;-89
2023/06/21 20:13:11;;;;;;;18.38;11.52;;;21.00;90.50;;;;;;4807255;29;20058;-85
2023/06/21 20:15:37;;;;;;;13.45;10.70;;;21.10;90.80;;;;;;4792360;29;20492;-83
2023/06/21 20:18:03;;;;;;;15.85;10.48;;;21.10;91.40;;;;;;4807630;29;20050;-84
2023/06/21 20:20:29;;;;;;;13.20;11.18;;;21.00;91.60;;;;;;4807589;29;20211;-86
2023/06/21 20:22:56;;;;;;;18.65;12.20;;;;;;;;;;4807467;29;20062;-87
2023/06/21 20:25:24;;;;;;;20.15;12.02;;;;;;;;;;4777428;29;20138;-84
2023/06/21 20:27:50;;;;;;;12.85;11.48;;;20.80;92.80;;;;;;4807048;29;20115;-83
2023/06/21 20:30:16;;;;;;;18.85;12.20;;;;;;;;;;4806742;29;20098;-82
2023/06/21 20:32:43;;;;;;;17.05;11.18;;;20.70;93.40;;;;;;4791984;29;20127;-83
2023/06/21 20:35:10;;;;;;;15.10;11.57;;;20.70;93.70;;;;;;4806995;29;20461;-83
2023/06/21 20:37:37;;;;;;;24.55;12.38;;;20.70;94.10;;;;;;4791875;29;20109;-82
2023/06/21 20:40:14;;;;;;;17.33;11.95;;;20.70;94.40;;;;;;4776645;29;20046;-82
2023/06/21 20:42:40;;;;;;;18.80;12.45;;;;;;;;;;4791624;29;20058;-82
2023/06/21 20:45:21;;;;;;;21.88;12.80;;;20.60;95.20;;;;;;4806963;29;20049;-81
2023/06/21 20:47:53;;;;;;;16.23;13.45;;;20.50;94.30;;;;;;4806447;29;20047;-82
2023/06/21 20:50:26;;;;;;;20.10;13.35;;;20.50;96.10;;;;;;4806629;29;20492;-84
2023/06/21 20:52:52;;;;;;;16.60;12.57;;;20.40;96.20;;;;;;4806346;29;20084;-82
2023/06/21 20:55:24;;;;;;;17.92;13.15;;;20.40;95.80;;;;;;4806425;29;20098;-82
2023/06/21 20:57:54;;;;;;;16.40;12.73;;;20.30;96.40;;;;;;4777211;29;20055;-82
2023/06/21 21:00:22;;;;;;;17.15;13.15;;;20.20;95.10;;;;;;4809174;29;20125;-82
2023/06/21 21:02:48;;;;;;;20.30;13.75;;;20.10;96.60;;;;;;4795374;29;20050;-82
2023/06/21 21:05:18;;;;;;;19.65;12.23;;;20.10;97.00;;;;;;4781738;29;20133;-82
2023/06/21 21:07:44;;;;;;;14.73;12.23;;;;;;;;;;4810192;29;20066;-83
2023/06/21 21:10:11;;;;;;;21.27;14.38;;;20.00;97.20;;;;;;4810118;29;20140;-83
2023/06/21 21:12:38;;;;;;;13.93;12.23;;;20.30;95.60;;;;;;4779888;29;20420;-82
2023/06/21 21:15:06;;;;;;;17.10;14.25;;;20.00;96.00;;;;;;4809661;29;20050;-81
2023/06/21 21:17:32;;;;;;;16.30;12.93;;;20.00;97.50;;;;;;4809251;29;20143;-81
2023/06/21 21:19:58;;;;;;;16.25;13.55;;;20.20;97.90;;;;;;4795201;29;20050;-81
2023/06/21 21:22:24;;;;;;;20.23;14.10;;;;;;;;;;4779362;29;20046;-80
2023/06/21 21:24:50;;;;;;;20.30;13.30;;;;;;;;;;4809043;29;20092;-81
2023/06/21 21:27:16;;;;;;;20.40;14.40;;;;;;;;;;4808987;29;20203;-82
2023/06/21 21:29:42;;;;;;;17.05;13.07;;;;;;;;;;4794202;29;20536;-81
2023/06/21 21:32:08;;;;;;;20.08;13.93;;;19.80;98.80;;;;;;4794256;29;20050;-79
2023/06/21 21:34:34;;;;;;;18.20;12.63;;;19.90;98.70;;;;;;4825352;29;20408;-80
2023/06/21 21:37:00;;;;;;;15.13;12.65;;;;;;;;;;4808829;29;20050;-79
2023/06/21 21:39:26;;;;;;;15.50;13.88;;;;;;;;;;4793855;29;20054;-79
2023/06/21 21:41:52;;;;;;;17.95;13.90;;;;;;;;;;4794034;29;20504;-80
2023/06/21 21:44:19;;;;;;;16.02;13.80;;;;;;;;;;4794376;29;20054;-81
2023/06/21 21:46:45;;;;;;;16.52;13.75;;;19.60;99.50;;;;;;4793875;29;20095;-80
2023/06/21 21:49:11;;;;;;;17.45;13.43;;;;;;;;;;4793972;29;20380;-80
2023/06/21 21:51:37;;;;;;;18.08;14.30;;;;;;;;;;4808870;29;20048;-81
2023/06/21 21:54:03;;;;;;;19.38;14.38;;;19.50;99.90;;;;;;4808476;29;20057;-82
2023/06/21 21:56:29;;;;;;;24.15;16.30;;;;;;;;;;4790804;29;20055;-83
2023/06/21 21:58:55;;;;;;;20.23;15.35;;;;;;;;;;4790968;29;20134;-83
2023/06/21 22:01:21;;;;;;;18.13;15.18;;;19.30;99.90;;;;;;4806614;29;20051;-84
2023/06/21 22:03:47;;;;;;;19.50;14.98;;;19.30;99.90;;;;;;4792375;29;20054;-83
2023/06/21 22:06:13;;;;;;;18.48;15.20;;;;;;;;;;4806072;29;20495;-83
2023/06/21 22:08:39;;;;;;;19.48;15.20;;;;;;;;;;4790449;29;20051;-83
2023/06/21 22:11:06;;;;;;;17.50;14.60;;;;;;;;;;4790361;29;20047;-82
2023/06/21 22:13:37;;;;;;;17.33;14.95;;;;;;;;;;4790799;29;20086;-83
2023/06/21 22:16:05;;;;;;;20.27;14.95;;;;;;;;;;4791583;29;20066;-83
2023/06/21 22:18:33;;;;;;;18.02;14.27;;;;;;;;;;4775937;29;20090;-82
2023/06/21 22:21:00;;;;;;;16.25;13.80;;;19.20;99.90;;;;;;4790937;29;20043;-86
2023/06/21 22:23:31;;;;;;;17.90;15.02;;;19.10;99.90;;;;;;4805358;29;20061;-81
2023/06/21 22:26:02;;;;;;;19.65;15.43;;;19.00;99.90;;;;;;4790874;29;20046;-86
2023/06/21 22:28:28;;;;;;;22.40;16.30;;;;;;;;;;4790148;29;20432;-81
2023/06/21 22:30:55;;;;;;;19.25;15.05;;;;;;;;;;4789997;29;20043;-88
2023/06/21 22:33:21;;;;;;;21.58;16.27;;;;;;;;;;4789772;29;20057;-84
2023/06/21 22:35:47;;;;;;;16.95;14.63;;;19.00;99.90;;;;;;4805069;29;20046;-86
2023/06/21 22:38:13;;;;;;;18.25;14.82;;;;;;;;;;4804703;29;20108;-86
2023/06/21 22:40:39;;;;;;;16.02;14.40;;;;;;;;;;4789922;29;20058;-84
2023/06/21 22:43:05;;;;;;;20.58;15.05;;;;;;;;;;4804833;29;20050;-81
2023/06/21 22:45:34;;;;;;;16.83;14.18;;;;;;;;;;4804851;29;20050;-84
2023/06/21 22:48:00;;;;;;;21.58;14.85;;;;;;;;;;4804782;29;20058;-82
2023/06/21 22:50:27;;;;;;;19.65;15.60;;;18.80;99.90;;;;;;4789576;29;20095;-84
2023/06/21 22:52:54;;;;;;;19.27;13.65;;;18.70;99.90;;;;;;4789605;29;20043;-84
2023/06/21 22:55:21;;;;;;;15.70;14.07;;;18.70;99.90;;;;;;4789472;29;20086;-84
2023/06/21 22:57:47;;;;;;;16.10;12.35;;;;;;;;;;4804831;29;20063;-82
2023/06/21 23:00:13;;;;;;;14.30;11.05;;;18.40;99.90;;;;;;4804542;29;20043;-79
2023/06/21 23:02:39;;;;;;;17.42;13.45;;;;;;;;;;4774665;29;20050;-81
2023/06/21 23:05:05;;;;;;;19.95;14.73;;;18.70;99.90;;;;;;4804357;29;20043;-80
2023/06/21 23:07:31;;;;;;;18.73;15.73;;;;;;;;;;4804303;29;20062;-80
2023/06/21 23:10:08;;;;;;;18.73;13.73;;;;;;;;;;4789808;29;20051;-81
2023/06/21 23:12:38;;;;;;;12.95;11.45;;;18.50;99.90;;;;;;4804769;29;20442;-80
2023/06/21 23:15:13;;;;;;;10.43;9.43;;;18.30;99.90;;;;;;4774662;29;20053;-81
2023/06/21 23:17:39;;;;;;;10.35;9.35;;;;;;;;;;4804303;29;20066;-87
2023/06/21 23:20:12;;;;;;;11.10;10.00;;;18.20;99.90;;;;;;4774540;29;20057;-86
2023/06/21 23:22:38;;;;;;;10.53;9.23;;;;;;;;;;4789485;29;20059;-86
2023/06/21 23:25:11;;;;;;;12.15;10.68;;;17.90;99.90;;;;;;4804002;29;20300;-85
2023/06/21 23:27:45;;;;;;;15.23;12.15;;;17.90;99.90;;;;;;4789070;29;20518;-86
2023/06/21 23:30:18;;;;;;;11.43;10.05;;;18.00;99.90;;;;;;4804247;29;20137;-86
2023/06/21 23:32:44;;;;;;;10.93;9.30;;;;;;;;;;4789552;29;20634;-85
2023/06/21 23:35:10;;;;;;;11.50;10.32;;;17.70;99.90;;;;;;4789269;29;20042;-78
2023/06/21 23:37:37;;;;;;;11.68;10.57;;;;;;;;;;4773936;29;20492;-79
2023/06/21 23:40:10;;;;;;;12.38;11.18;;;17.60;99.90;;;;;;4788966;29;20062;-83
2023/06/21 23:42:38;;;;;;;15.73;14.05;;;;;;;;;;4774842;29;20130;-82
2023/06/21 23:45:08;;;;;;;16.30;14.23;;;17.50;99.90;;;;;;4789166;29;20051;-86
2023/06/21 23:47:35;;;;;;;15.43;13.52;;;17.60;99.90;;;;;;4803920;29;20055;-83
2023/06/21 23:50:02;;;;;;;15.55;13.95;;;17.50;99.90;;;;;;4788775;29;20653;-86
2023/06/21 23:52:28;;;;;;;13.30;11.90;;;17.60;99.90;;;;;;4804089;29;20061;-80
2023/06/21 23:54:55;;;;;;;16.00;14.30;;;;;;;;;;4790055;29;20043;-83
2023/06/21 23:57:22;;;;;;;15.60;13.90;;;17.50;99.90;;;;;;4807001;29;20081;-83
2023/06/21 23:59:48;;;;;;;13.55;12.23;;;;;;;;;;4792156;29;20061;-85
